X  Kiinni Metar Aviation säätiedot     EIDW Dublin Airport
Lämpötila
12°C Lämpötila
8°C Kastepiste
77% Kosteus



Tuuli
23 KM/T
14 MPH
6 M/S
12 KTS



150°
EEI
Nykyiset olosuhteet

Kevyt Sade Kevyt Sade
Paine 996.92 (hPa) - 29.44 (inHg)
Näkyvyys 6.2 (maili) - 10 (km)
Lentokenttä
Lentokentän koodi EIDW

Sijainti: Dublin Airport
Etäisyys: 17 (km)

Metar:
EIDW 252200Z 15012KT 120V190 9999 -RA SCT020 BKN130 12/08 Q0997 NOSIG

Aika: 25-06-2022 23:00 IST